createdAt,value
2018-02-22T00:00:16.082Z,21.33
2018-02-22T00:03:19.365Z,22.20
2018-02-22T00:06:22.654Z,24.20
2018-02-22T00:09:27.265Z,19.80
2018-02-22T00:12:30.557Z,22.00
2018-02-22T00:15:33.874Z,21.20
2018-02-22T00:18:37.370Z,25.60
2018-02-22T00:21:41.411Z,21.37
2018-02-22T00:24:44.695Z,23.17
2018-02-22T00:27:48.736Z,22.20
2018-02-22T00:30:52.065Z,22.80
2018-02-22T00:33:55.409Z,20.50
2018-02-22T00:36:58.699Z,22.13
2018-02-22T00:40:01.987Z,22.95
2018-02-22T00:43:06.125Z,21.30
2018-02-22T00:46:09.437Z,21.47
2018-02-22T00:49:12.731Z,19.87
2018-02-22T00:52:16.045Z,19.08
2018-02-22T00:55:19.329Z,19.80
2018-02-22T00:58:22.593Z,21.67
2018-02-22T01:01:26.643Z,17.45
2018-02-22T01:04:29.922Z,15.63
2018-02-22T01:07:33.969Z,17.57
2018-02-22T01:10:37.343Z,17.42
2018-02-22T01:13:40.605Z,16.87
2018-02-22T01:16:44.669Z,16.58
2018-02-22T01:19:47.959Z,17.17
2018-02-22T01:22:51.256Z,17.67
2018-02-22T01:25:54.562Z,18.27
2018-02-22T01:28:58.773Z,16.57
2018-02-22T01:32:02.079Z,16.27
2018-02-22T01:35:05.350Z,12.47
2018-02-22T01:38:10.638Z,16.43
2018-02-22T01:41:13.955Z,13.90
2018-02-22T01:44:17.226Z,16.23
2018-02-22T01:47:20.815Z,16.30
2018-02-22T01:50:24.459Z,15.67
2018-02-22T01:53:27.818Z,14.43
2018-02-22T01:56:31.101Z,18.73
2018-02-22T01:59:34.390Z,18.17
2018-02-22T02:02:38.424Z,15.80
2018-02-22T02:05:41.698Z,14.43
2018-02-22T02:08:45.750Z,17.23
2018-02-22T02:11:49.028Z,17.37
2018-02-22T02:14:52.296Z,15.85
2018-02-22T02:17:55.577Z,16.87
2018-02-22T02:20:58.925Z,20.13
2018-02-22T02:24:02.189Z,15.80
2018-02-22T02:27:05.469Z,16.23
2018-02-22T02:30:08.751Z,13.03
2018-02-22T02:33:12.193Z,17.33
2018-02-22T02:36:16.234Z,20.10
2018-02-22T02:39:19.537Z,17.10
2018-02-22T02:42:22.917Z,19.90
2018-02-22T02:45:26.185Z,19.75
2018-02-22T02:48:29.574Z,18.13
2018-02-22T02:51:33.632Z,18.33
2018-02-22T02:54:36.902Z,19.65
2018-02-22T02:57:41.047Z,18.43
2018-02-22T03:00:44.353Z,20.57
2018-02-22T03:03:48.252Z,20.55
2018-02-22T03:06:51.542Z,21.27
2018-02-22T03:09:55.575Z,20.03
2018-02-22T03:12:59.791Z,20.30
2018-02-22T03:16:03.064Z,19.33
2018-02-22T03:19:07.202Z,20.00
2018-02-22T03:22:10.487Z,18.40
2018-02-22T03:25:14.285Z,18.65
2018-02-22T03:28:18.429Z,19.87
2018-02-22T03:31:21.716Z,17.93
2018-02-22T03:34:25.743Z,20.33
2018-02-22T03:37:29.028Z,20.03
2018-02-22T03:40:33.058Z,21.92
2018-02-22T03:43:36.342Z,18.77
2018-02-22T03:46:40.389Z,20.77
2018-02-22T03:49:44.910Z,14.17
2018-02-22T03:52:48.193Z,21.57
2018-02-22T03:55:51.479Z,16.70
2018-02-22T03:58:54.769Z,19.37
2018-02-22T04:01:58.813Z,16.03
2018-02-22T04:05:02.086Z,16.98
2018-02-22T04:08:06.130Z,15.53
2018-02-22T04:11:09.505Z,18.60
2018-02-22T04:14:13.542Z,15.45
2018-02-22T04:17:16.822Z,17.17
2018-02-22T04:20:20.084Z,16.95
2018-02-22T04:23:23.399Z,13.65
2018-02-22T04:26:26.658Z,16.43
2018-02-22T04:29:29.926Z,18.53
2018-02-22T04:32:33.210Z,13.03
2018-02-22T04:35:36.486Z,19.55
2018-02-22T04:38:39.825Z,17.10
2018-02-22T04:41:43.208Z,19.60
2018-02-22T04:44:46.913Z,13.13
2018-02-22T04:47:50.215Z,15.63
2018-02-22T04:50:53.531Z,16.17
2018-02-22T04:53:56.912Z,14.50
2018-02-22T04:57:00.180Z,14.35
2018-02-22T05:00:05.555Z,14.75
2018-02-22T05:03:09.671Z,17.90
2018-02-22T05:06:12.945Z,16.93
2018-02-22T05:09:18.313Z,15.20
2018-02-22T05:12:21.585Z,15.77
2018-02-22T05:15:25.637Z,14.63
2018-02-22T05:18:28.933Z,19.20
2018-02-22T05:21:32.332Z,18.08
2018-02-22T05:24:35.609Z,17.37
2018-02-22T05:27:39.735Z,15.27
2018-02-22T05:30:43.350Z,15.65
2018-02-22T05:33:46.627Z,15.73
2018-02-22T05:36:52.209Z,13.67
2018-02-22T05:39:55.753Z,14.63
2018-02-22T05:42:59.086Z,13.13
2018-02-22T05:46:03.124Z,16.97
2018-02-22T05:49:06.413Z,15.10
2018-02-22T05:52:09.696Z,15.23
2018-02-22T05:55:13.752Z,16.30
2018-02-22T05:58:17.025Z,16.70
2018-02-22T06:01:20.293Z,16.83
2018-02-22T06:04:24.330Z,19.37
2018-02-22T06:07:38.947Z,14.73
2018-02-22T06:10:52.814Z,16.50
2018-02-22T06:13:57.972Z,14.83
2018-02-22T06:17:01.298Z,15.40
2018-02-22T06:20:06.075Z,15.37
2018-02-22T06:23:09.341Z,17.73
2018-02-22T06:26:12.710Z,16.30
2018-02-22T06:29:15.980Z,19.47
2018-02-22T06:32:21.272Z,16.73
2018-02-22T06:35:24.649Z,17.57
2018-02-22T06:38:27.925Z,18.60
2018-02-22T06:41:31.969Z,17.00
2018-02-22T06:44:35.354Z,15.30
2018-02-22T06:47:38.645Z,17.17
2018-02-22T06:50:42.700Z,16.40
2018-02-22T06:53:46.001Z,13.57
2018-02-22T06:56:49.266Z,16.97
2018-02-22T06:59:52.546Z,16.07
2018-02-22T07:02:56.616Z,15.90
2018-02-22T07:05:59.937Z,13.57
2018-02-22T07:09:03.194Z,15.77
2018-02-22T07:12:06.494Z,15.68
2018-02-22T07:15:09.770Z,15.87
2018-02-22T07:18:13.092Z,15.30
2018-02-22T07:21:16.394Z,14.97
2018-02-22T07:24:19.782Z,15.30
2018-02-22T07:27:23.070Z,15.97
2018-02-22T07:30:26.371Z,16.13
2018-02-22T07:33:29.661Z,14.73
2018-02-22T07:36:32.933Z,15.40
2018-02-22T07:39:36.986Z,13.30
2018-02-22T07:42:40.256Z,18.92
2018-02-22T07:45:44.301Z,14.70
2018-02-22T07:48:47.678Z,16.87
2018-02-22T07:51:51.846Z,12.73
2018-02-22T07:54:55.179Z,13.63
2018-02-22T07:57:58.472Z,16.83
2018-02-22T08:01:01.750Z,17.50
2018-02-22T08:04:05.032Z,12.43
2018-02-22T08:07:08.302Z,15.50
2018-02-22T08:10:12.372Z,13.53
2018-02-22T08:13:16.011Z,16.93
2018-02-22T08:16:20.041Z,15.83
2018-02-22T08:19:24.915Z,12.10
2018-02-22T08:22:28.596Z,14.30
2018-02-22T08:25:31.893Z,15.50
2018-02-22T08:28:35.176Z,14.73
2018-02-22T08:31:38.480Z,15.83
2018-02-22T08:34:41.789Z,15.40
2018-02-22T08:37:45.165Z,16.67
2018-02-22T08:40:48.539Z,14.13
2018-02-22T08:43:52.591Z,14.63
2018-02-22T08:46:55.884Z,14.80
2018-02-22T08:49:59.194Z,14.57
2018-02-22T08:53:02.460Z,14.17
2018-02-22T08:56:06.506Z,15.07
2018-02-22T08:59:09.779Z,15.13
2018-02-22T09:02:13.060Z,17.73
2018-02-22T09:05:17.101Z,16.13
2018-02-22T09:08:20.382Z,17.20
2018-02-22T09:11:25.681Z,16.33
2018-02-22T09:14:29.007Z,15.57
2018-02-22T09:17:32.342Z,16.27
2018-02-22T09:20:35.641Z,18.10
2018-02-22T09:23:39.001Z,14.63
2018-02-22T09:26:43.398Z,15.83
2018-02-22T09:29:46.669Z,14.53
2018-02-22T09:32:50.062Z,13.17
2018-02-22T09:35:53.444Z,17.83
2018-02-22T09:38:56.719Z,16.10
2018-02-22T09:42:00.057Z,14.43
2018-02-22T09:45:03.334Z,17.20
2018-02-22T09:48:07.398Z,15.00
2018-02-22T09:51:10.678Z,14.40
2018-02-22T09:54:14.065Z,14.83
2018-02-22T09:57:17.472Z,14.07
2018-02-22T10:00:20.742Z,17.33
2018-02-22T10:03:24.784Z,14.73
2018-02-22T10:06:28.069Z,14.07
2018-02-22T10:09:31.346Z,13.25
2018-02-22T10:12:35.510Z,14.57
2018-02-22T10:15:38.782Z,15.77
2018-02-22T10:18:42.081Z,13.50
2018-02-22T10:21:45.374Z,13.70
2018-02-22T10:24:48.664Z,15.87
2018-02-22T10:27:51.964Z,16.23
2018-02-22T10:30:55.229Z,13.47
2018-02-22T10:34:00.091Z,13.40
2018-02-22T10:37:04.229Z,15.70
2018-02-22T10:40:07.510Z,13.50
2018-02-22T10:43:11.063Z,14.27
2018-02-22T10:46:14.418Z,12.30
2018-02-22T10:49:17.742Z,14.47
2018-02-22T10:52:21.825Z,14.07
2018-02-22T10:55:25.872Z,14.40
2018-02-22T10:58:29.155Z,15.60
2018-02-22T11:01:37.929Z,15.85
2018-02-22T11:04:41.236Z,16.33
2018-02-22T11:07:45.405Z,15.90
2018-02-22T11:10:48.681Z,14.97
2018-02-22T11:13:51.999Z,14.63
2018-02-22T11:16:55.270Z,13.60
2018-02-22T11:19:59.697Z,13.93
2018-02-22T11:23:02.978Z,16.15
2018-02-22T11:26:07.029Z,13.50
2018-02-22T11:29:10.309Z,12.53
2018-02-22T11:32:13.572Z,15.20
2018-02-22T11:35:16.861Z,15.30
2018-02-22T11:38:20.127Z,14.55
2018-02-22T11:41:23.715Z,15.83
2018-02-22T11:44:27.003Z,12.70
2018-02-22T11:47:31.046Z,12.30
2018-02-22T11:50:34.359Z,14.52
2018-02-22T11:53:37.644Z,14.63
2018-02-22T11:56:40.919Z,12.60
2018-02-22T11:59:44.235Z,18.13
2018-02-22T12:02:47.542Z,14.87
2018-02-22T12:05:50.942Z,16.83
2018-02-22T12:08:54.238Z,15.00
2018-02-22T12:11:57.600Z,19.23
2018-02-22T12:15:00.889Z,14.70
2018-02-22T12:18:04.941Z,15.30
2018-02-22T12:21:08.247Z,14.17
2018-02-22T12:24:11.534Z,16.08
2018-02-22T12:27:15.008Z,13.67
2018-02-22T12:30:19.075Z,16.77
2018-02-22T12:33:22.446Z,17.57
2018-02-22T12:36:25.737Z,16.30
2018-02-22T12:39:30.011Z,16.05
2018-02-22T12:42:33.286Z,18.70
2018-02-22T12:45:36.561Z,16.93
2018-02-22T12:48:39.837Z,14.10
2018-02-22T12:51:44.925Z,15.43
2018-02-22T12:54:48.290Z,15.77
2018-02-22T12:57:51.608Z,15.52
2018-02-22T13:00:54.883Z,14.13
2018-02-22T13:03:58.150Z,14.67
2018-02-22T13:07:02.726Z,14.00
2018-02-22T13:10:06.114Z,17.33
2018-02-22T13:13:09.394Z,13.77
2018-02-22T13:16:13.835Z,12.57
2018-02-22T13:19:17.164Z,18.67
2018-02-22T13:22:20.543Z,15.80
2018-02-22T13:25:24.000Z,14.50
2018-02-22T13:28:28.123Z,15.13
2018-02-22T13:31:32.689Z,20.80
2018-02-22T13:34:35.963Z,13.70
2018-02-22T13:38:15.601Z,15.97
2018-02-22T13:41:19.645Z,18.43
2018-02-22T13:44:40.511Z,14.33
2018-02-22T13:47:43.936Z,12.13
2018-02-22T13:51:05.558Z,12.17
2018-02-22T13:54:09.597Z,16.23
2018-02-22T13:57:19.224Z,14.10
2018-02-22T14:00:41.534Z,15.50
2018-02-22T14:03:44.817Z,14.33
2018-02-22T14:06:48.085Z,16.70
2018-02-22T14:09:51.467Z,14.63
2018-02-22T14:12:54.975Z,15.87
2018-02-22T14:15:58.242Z,14.07
2018-02-22T14:19:02.289Z,13.23
2018-02-22T14:22:05.648Z,14.17
2018-02-22T14:25:08.849Z,14.90
2018-02-22T14:28:12.628Z,14.27
2018-02-22T14:31:15.900Z,14.73
2018-02-22T14:34:19.178Z,15.40
2018-02-22T14:37:23.305Z,14.30
2018-02-22T14:40:27.339Z,19.23
2018-02-22T14:43:30.631Z,13.60
2018-02-22T14:46:35.188Z,13.87
2018-02-22T14:49:38.489Z,14.87
2018-02-22T14:52:41.761Z,16.27
2018-02-22T14:55:45.148Z,13.23
2018-02-22T14:58:48.982Z,12.30
2018-02-22T15:01:52.264Z,15.07
2018-02-22T15:04:55.533Z,13.10
2018-02-22T15:07:59.588Z,12.20
2018-02-22T15:14:01.861Z,15.47
2018-02-22T15:17:06.377Z,15.03
2018-02-22T15:20:11.245Z,14.50
2018-02-22T15:23:14.530Z,12.00
2018-02-22T15:26:17.875Z,13.07
2018-02-22T15:29:21.207Z,13.63
2018-02-22T15:32:25.642Z,10.90
2018-02-22T15:35:29.135Z,12.73
2018-02-22T15:38:32.454Z,13.90
2018-02-22T15:41:36.979Z,12.90
2018-02-22T15:44:40.253Z,16.57
2018-02-22T15:47:45.015Z,13.47
2018-02-22T15:50:48.329Z,14.40
2018-02-22T15:53:51.620Z,11.55
2018-02-22T15:56:54.995Z,10.43
2018-02-22T15:59:58.279Z,13.93
2018-02-22T16:03:02.327Z,12.57
2018-02-22T16:06:05.701Z,13.17
2018-02-22T16:09:08.977Z,14.10
2018-02-22T16:12:12.249Z,12.68
2018-02-22T16:15:15.551Z,12.37
2018-02-22T16:18:18.860Z,12.77
2018-02-22T16:21:22.129Z,13.37
2018-02-22T16:24:25.416Z,12.00
2018-02-22T16:27:28.707Z,12.88
2018-02-22T16:30:32.078Z,14.10
2018-02-22T16:33:36.206Z,14.97
2018-02-22T16:36:39.485Z,12.70
2018-02-22T16:39:43.786Z,12.73
2018-02-22T16:42:47.137Z,14.63
2018-02-22T16:45:50.425Z,16.40
2018-02-22T16:48:53.776Z,11.67
2018-02-22T16:51:57.037Z,12.03
2018-02-22T16:55:00.317Z,13.90
2018-02-22T16:58:03.594Z,14.40
2018-02-22T17:01:07.650Z,15.23
2018-02-22T17:04:11.098Z,12.33
2018-02-22T17:07:15.193Z,13.15
2018-02-22T17:10:21.098Z,16.73
2018-02-22T17:13:29.772Z,13.93
2018-02-22T17:16:34.952Z,11.97
2018-02-22T17:19:40.588Z,13.60
2018-02-22T17:22:45.243Z,13.93
2018-02-22T17:25:55.024Z,13.63
2018-02-22T17:29:04.149Z,16.30
2018-02-22T17:32:13.655Z,14.03
2018-02-22T17:35:38.245Z,11.52
2018-02-22T17:38:46.977Z,11.93
2018-02-22T17:41:51.129Z,12.07
2018-02-22T17:44:54.394Z,16.37
2018-02-22T17:47:57.673Z,14.27
2018-02-22T17:51:02.494Z,14.23
2018-02-22T17:54:06.076Z,14.38
2018-02-22T17:57:09.862Z,13.30
2018-02-22T18:00:13.361Z,14.50
2018-02-22T18:03:16.795Z,12.45
2018-02-22T18:06:20.269Z,13.73
2018-02-22T18:09:23.553Z,15.43
2018-02-22T18:12:27.953Z,13.03
2018-02-22T18:15:32.400Z,13.77
2018-02-22T18:18:36.685Z,10.75
2018-02-22T18:21:41.161Z,14.37
2018-02-22T18:24:44.729Z,14.57
2018-02-22T18:27:49.092Z,12.73
2018-02-22T18:30:54.127Z,14.03
2018-02-22T18:33:58.302Z,19.05
2018-02-22T18:37:03.033Z,15.23
2018-02-22T18:40:12.110Z,13.38
2018-02-22T18:43:21.472Z,12.63
2018-02-22T18:46:25.064Z,14.20
2018-02-22T18:49:28.902Z,12.50
2018-02-22T18:52:33.422Z,13.93
2018-02-22T18:55:37.038Z,13.87
2018-02-22T18:58:41.466Z,12.10
2018-02-22T19:01:45.467Z,12.63
2018-02-22T19:04:49.214Z,11.70
2018-02-22T19:07:52.795Z,11.00
2018-02-22T19:10:56.228Z,13.40
2018-02-22T19:14:00.479Z,12.93
2018-02-22T19:17:04.082Z,12.55
2018-02-22T19:20:10.153Z,13.07
2018-02-22T19:23:13.594Z,10.80
2018-02-22T19:26:17.120Z,14.03
2018-02-22T19:29:21.476Z,10.90
2018-02-22T19:32:25.288Z,11.55
2018-02-22T19:35:28.995Z,12.23
2018-02-22T19:38:34.279Z,13.57
2018-02-22T19:41:37.994Z,11.80
2018-02-22T19:44:41.647Z,9.85
2018-02-22T19:47:46.155Z,12.05
2018-02-22T19:50:49.630Z,13.53
2018-02-22T19:53:53.288Z,13.57
2018-02-22T19:56:56.695Z,12.00
2018-02-22T20:00:00.450Z,14.60
2018-02-22T20:03:03.819Z,12.67
2018-02-22T20:06:07.383Z,12.43
2018-02-22T20:09:10.874Z,13.70
2018-02-22T20:12:15.370Z,14.13
2018-02-22T20:15:19.621Z,11.50
2018-02-22T20:18:23.811Z,11.53
2018-02-22T20:21:27.115Z,13.70
2018-02-22T20:24:31.113Z,15.07
2018-02-22T20:27:36.250Z,13.17
2018-02-22T20:30:39.520Z,12.52
2018-02-22T20:33:43.645Z,15.17
2018-02-22T20:36:48.746Z,11.65
2018-02-22T20:39:52.855Z,13.73
2018-02-22T20:42:56.162Z,11.40
2018-02-22T20:45:59.457Z,11.60
2018-02-22T20:49:02.746Z,12.20
2018-02-22T20:52:09.758Z,12.80
2018-02-22T20:55:18.707Z,12.73
2018-02-22T20:58:21.965Z,11.63
2018-02-22T21:01:25.281Z,13.60
2018-02-22T21:04:29.337Z,9.93
2018-02-22T21:07:32.769Z,12.03
2018-02-22T21:10:36.320Z,12.35
2018-02-22T21:13:39.737Z,12.37
2018-02-22T21:16:43.017Z,11.55
2018-02-22T21:19:47.197Z,13.32
2018-02-22T21:22:50.526Z,9.60
2018-02-22T21:25:54.655Z,12.35
2018-02-22T21:28:58.125Z,13.50
2018-02-22T21:32:02.062Z,12.53
2018-02-22T21:35:06.097Z,12.77
2018-02-22T21:38:09.366Z,14.30
2018-02-22T21:41:13.645Z,12.60
2018-02-22T21:44:16.918Z,10.97
2018-02-22T21:47:21.037Z,12.93
2018-02-22T21:50:24.309Z,13.82
2018-02-22T21:53:27.574Z,13.53
2018-02-22T21:56:30.913Z,13.17
2018-02-22T21:59:34.182Z,13.97
2018-02-22T22:02:38.212Z,14.95
2018-02-22T22:05:42.344Z,13.13
2018-02-22T22:08:46.382Z,13.73
2018-02-22T22:11:49.752Z,14.10
2018-02-22T22:14:53.785Z,13.97
2018-02-22T22:17:57.216Z,13.00
2018-02-22T22:21:00.466Z,14.07
2018-02-22T22:24:04.499Z,13.73
2018-02-22T22:27:07.773Z,13.62
2018-02-22T22:30:11.905Z,12.57
2018-02-22T22:33:15.178Z,15.07
2018-02-22T22:36:19.254Z,13.63
2018-02-22T22:39:22.558Z,12.20
2018-02-22T22:42:25.918Z,16.00
2018-02-22T22:45:29.179Z,14.80
2018-02-22T22:48:33.044Z,11.83
2018-02-22T22:51:36.417Z,14.17
2018-02-22T22:54:39.698Z,14.93
2018-02-22T22:57:42.980Z,15.47
2018-02-22T23:00:46.327Z,15.10
2018-02-22T23:03:49.601Z,13.63
2018-02-22T23:06:53.176Z,13.25
2018-02-22T23:09:56.446Z,14.97
2018-02-22T23:12:59.827Z,12.87
2018-02-22T23:16:03.319Z,14.60
2018-02-22T23:19:06.641Z,15.83
2018-02-22T23:22:10.645Z,12.73
2018-02-22T23:25:13.981Z,15.93
2018-02-22T23:28:17.336Z,16.00
2018-02-22T23:31:20.619Z,12.13
2018-02-22T23:34:24.669Z,14.40
2018-02-22T23:37:28.073Z,15.25
2018-02-22T23:40:32.177Z,14.57
2018-02-22T23:43:35.470Z,13.90
2018-02-22T23:46:38.831Z,14.87
2018-02-22T23:49:42.129Z,14.73
2018-02-22T23:52:46.178Z,13.30
2018-02-22T23:55:49.474Z,14.07
2018-02-22T23:58:52.786Z,13.33
